Terminal Aerodrome Forecast
Issued by NWS

Home | Current Version | Previous Version | Text Only | Print | Product List | Glossary On
Versions: 1 2 3 4 5 6 7 8 9 10 11 12 13 14 15 16 17 18 19 20 21 22 23 24 25 26 27 28 29 30 31 32 33 34 35 36 37 38 39 40 41 42 43 44 45
000
FTUS45 KBOU 252252 AAA
TAFAPA
TAF AMD
KAPA 252252Z 2523/2618 20015G30KT P6SM +TSRA SCT070CB BKN120
      TEMPO 2523/2601 VRB20G40KT 3SM +TSRA BKN060CB
     FM260100 15009KT P6SM FEW070 BKN110
     FM260900 VRB05KT P6SM VCFG SCT009 BKN015
     FM261600 08006KT P6SM SCT015 BKN140=

USA.gov is the U.S. government's official web portal to all federal, state and local government web resources and services.